Terminal Aerodrome Forecast
Issued by NWS Milwaukee/Sullivan, WI

Home | Current Version | Previous Version | Text Only | Print | Product List | Glossary On
Versions: 1 2 3 4 5 6 7 8 9 10 11 12 13 14 15 16 17 18 19 20 21 22 23 24 25 26 27 28 29 30 31
000
FTUS43 KMKX 231003 AAB
TAFMKE
TAF AMD
KMKE 231003Z 2310/2412 29010KT P6SM SKC
     FM231100 33010KT P6SM SCT010 BKN020
     FM231300 03010KT P6SM SCT006 OVC020
     FM231700 03012KT P6SM BKN040
     FM240300 03013KT 5SM -RA BR OVC015
     FM240600 05015G23KT 2SM RA BR OVC003=

USA.gov is the U.S. government's official web portal to all federal, state and local government web resources and services.